sensor_id;sensor_type;location;lat;lon;timestamp;pressure;altitude;pressure_sealevel;temperature;humidity
51123;BME280;37162;41.724;13.346;2022-08-27T00:00:23;96282.63;;;24.58;62.51
51123;BME280;37162;41.724;13.346;2022-08-27T00:02:49;96291.88;;;24.57;62.65
51123;BME280;37162;41.724;13.346;2022-08-27T00:05:16;96283.72;;;24.57;62.54
51123;BME280;37162;41.724;13.346;2022-08-27T00:07:42;96286.44;;;24.57;62.64
51123;BME280;37162;41.724;13.346;2022-08-27T00:10:10;96284.53;;;24.57;62.71
51123;BME280;37162;41.724;13.346;2022-08-27T00:12:36;96273.44;;;24.54;62.48
51123;BME280;37162;41.724;13.346;2022-08-27T00:15:04;96278.56;;;24.55;62.58
51123;BME280;37162;41.724;13.346;2022-08-27T00:17:30;96284.81;;;24.56;62.63
51123;BME280;37162;41.724;13.346;2022-08-27T00:19:55;96276.97;;;24.54;62.37
51123;BME280;37162;41.724;13.346;2022-08-27T00:22:21;96272.34;;;24.55;62.36
51123;BME280;37162;41.724;13.346;2022-08-27T00:24:46;96271.22;;;24.56;62.35
51123;BME280;37162;41.724;13.346;2022-08-27T00:27:11;96269.63;;;24.55;62.52
51123;BME280;37162;41.724;13.346;2022-08-27T00:29:37;96264.47;;;24.53;62.55
51123;BME280;37162;41.724;13.346;2022-08-27T00:32:03;96265.06;;;24.50;62.69
51123;BME280;37162;41.724;13.346;2022-08-27T00:34:28;96276.16;;;24.54;62.40
51123;BME280;37162;41.724;13.346;2022-08-27T00:36:55;96268.81;;;24.54;62.53
51123;BME280;37162;41.724;13.346;2022-08-27T00:39:21;96269.91;;;24.53;62.60
51123;BME280;37162;41.724;13.346;2022-08-27T00:41:46;96271.53;;;24.54;62.71
51123;BME280;37162;41.724;13.346;2022-08-27T00:44:12;96264.47;;;24.53;62.51
51123;BME280;37162;41.724;13.346;2022-08-27T00:49:16;96267.19;;;24.53;62.18
51123;BME280;37162;41.724;13.346;2022-08-27T00:51:45;96260.44;;;24.51;62.25
51123;BME280;37162;41.724;13.346;2022-08-27T00:54:15;96255.38;;;24.44;62.41
51123;BME280;37162;41.724;13.346;2022-08-27T00:56:42;96263.69;;;24.53;62.30
51123;BME280;37162;41.724;13.346;2022-08-27T00:59:10;96264.78;;;24.52;62.19
51123;BME280;37162;41.724;13.346;2022-08-27T01:01:37;96273.75;;;24.52;62.43
51123;BME280;37162;41.724;13.346;2022-08-27T01:04:22;96276.72;;;24.51;62.53
51123;BME280;37162;41.724;13.346;2022-08-27T01:06:48;96266.66;;;24.51;62.36
51123;BME280;37162;41.724;13.346;2022-08-27T01:09:16;96267.50;;;24.52;62.69
51123;BME280;37162;41.724;13.346;2022-08-27T01:11:42;96271.28;;;24.51;62.46
51123;BME280;37162;41.724;13.346;2022-08-27T01:14:08;96272.94;;;24.52;62.48
51123;BME280;37162;41.724;13.346;2022-08-27T01:16:37;96263.53;;;24.44;62.45
51123;BME280;37162;41.724;13.346;2022-08-27T01:19:19;96260.81;;;24.44;62.63
51123;BME280;37162;41.724;13.346;2022-08-27T01:22:19;96275.13;;;24.50;62.44
51123;BME280;37162;41.724;13.346;2022-08-27T01:24:45;96278.63;;;24.50;62.08
51123;BME280;37162;41.724;13.346;2022-08-27T01:27:17;96274.31;;;24.49;62.26
51123;BME280;37162;41.724;13.346;2022-08-27T01:29:45;96277.84;;;24.50;62.35
51123;BME280;37162;41.724;13.346;2022-08-27T01:32:14;96275.13;;;24.50;62.29
51123;BME280;37162;41.724;13.346;2022-08-27T01:34:40;96271.59;;;24.49;62.10
51123;BME280;37162;41.724;13.346;2022-08-27T01:37:07;96268.09;;;24.48;62.11
51123;BME280;37162;41.724;13.346;2022-08-27T01:39:34;96265.13;;;24.45;62.32
51123;BME280;37162;41.724;13.346;2022-08-27T01:42:04;96272.72;;;24.48;62.33
51123;BME280;37162;41.724;13.346;2022-08-27T01:44:42;96269.69;;;24.50;62.71
51123;BME280;37162;41.724;13.346;2022-08-27T01:47:08;96277.34;;;24.47;62.76
51123;BME280;37162;41.724;13.346;2022-08-27T01:49:34;96272.72;;;24.48;62.42
51123;BME280;37162;41.724;13.346;2022-08-27T01:51:59;96270.06;;;24.43;62.79
51123;BME280;37162;41.724;13.346;2022-08-27T01:54:24;96280.84;;;24.48;62.55
51123;BME280;37162;41.724;13.346;2022-08-27T01:56:50;96273.81;;;24.47;62.16
51123;BME280;37162;41.724;13.346;2022-08-27T01:59:15;96275.69;;;24.46;62.25
51123;BME280;37162;41.724;13.346;2022-08-27T02:01:41;96281.13;;;24.46;62.03
51123;BME280;37162;41.724;13.346;2022-08-27T02:04:07;96280.31;;;24.46;62.07
51123;BME280;37162;41.724;13.346;2022-08-27T02:06:33;96269.03;;;24.39;62.24
51123;BME280;37162;41.724;13.346;2022-08-27T02:08:58;96274.97;;;24.41;62.40
51123;BME280;37162;41.724;13.346;2022-08-27T02:11:24;96286.56;;;24.46;62.67
51123;BME280;37162;41.724;13.346;2022-08-27T02:13:50;96286.56;;;24.46;62.47
51123;BME280;37162;41.724;13.346;2022-08-27T02:16:15;96284.94;;;24.45;62.54
51123;BME280;37162;41.724;13.346;2022-08-27T02:18:40;96284.94;;;24.45;62.59
51123;BME280;37162;41.724;13.346;2022-08-27T02:21:06;96286.56;;;24.46;62.52
51123;BME280;37162;41.724;13.346;2022-08-27T02:23:32;96284.16;;;24.45;62.78
51123;BME280;37162;41.724;13.346;2022-08-27T02:25:57;96267.16;;;24.34;62.63
51123;BME280;37162;41.724;13.346;2022-08-27T02:28:23;96277.09;;;24.44;62.67
51123;BME280;37162;41.724;13.346;2022-08-27T02:30:48;96280.13;;;24.42;62.42
51123;BME280;37162;41.724;13.346;2022-08-27T02:33:14;96281.72;;;24.43;62.29
51123;BME280;37162;41.724;13.346;2022-08-27T02:35:39;96282.03;;;24.42;62.19
51123;BME280;37162;41.724;13.346;2022-08-27T02:38:07;96289.06;;;24.43;62.21
51123;BME280;37162;41.724;13.346;2022-08-27T02:40:32;96285.56;;;24.42;62.31
51123;BME280;37162;41.724;13.346;2022-08-27T02:42:58;96291.00;;;24.42;62.08
51123;BME280;37162;41.724;13.346;2022-08-27T02:45:23;96275.56;;;24.38;62.30
51123;BME280;37162;41.724;13.346;2022-08-27T02:47:49;96287.47;;;24.42;62.16
51123;BME280;37162;41.724;13.346;2022-08-27T02:50:15;96279.91;;;24.39;62.16
51123;BME280;37162;41.724;13.346;2022-08-27T02:52:41;96288.78;;;24.44;63.00
51123;BME280;37162;41.724;13.346;2022-08-27T02:55:06;96292.59;;;24.43;62.87
51123;BME280;37162;41.724;13.346;2022-08-27T02:57:33;96292.91;;;24.42;62.76
51123;BME280;37162;41.724;13.346;2022-08-27T02:59:59;96295.63;;;24.42;62.40
51123;BME280;37162;41.724;13.346;2022-08-27T03:02:24;96287.75;;;24.40;62.52
51123;BME280;37162;41.724;13.346;2022-08-27T03:04:50;96293.97;;;24.41;62.57
51123;BME280;37162;41.724;13.346;2022-08-27T03:07:15;96280.75;;;24.34;62.42
51123;BME280;37162;41.724;13.346;2022-08-27T03:09:41;96286.13;;;24.39;62.22
51123;BME280;37162;41.724;13.346;2022-08-27T03:12:06;96292.38;;;24.40;62.32
51123;BME280;37162;41.724;13.346;2022-08-27T03:14:33;96289.66;;;24.40;62.71
51123;BME280;37162;41.724;13.346;2022-08-27T03:16:59;96292.91;;;24.42;63.04
51123;BME280;37162;41.724;13.346;2022-08-27T03:19:44;96295.88;;;24.40;62.68
51123;BME280;37162;41.724;13.346;2022-08-27T03:22:10;96293.97;;;24.41;63.13
51123;BME280;37162;41.724;13.346;2022-08-27T03:24:36;96304.84;;;24.41;63.25
51123;BME280;37162;41.724;13.346;2022-08-27T03:27:01;96301.31;;;24.40;63.06
51123;BME280;37162;41.724;13.346;2022-08-27T03:29:27;96299.72;;;24.39;62.76
51123;BME280;37162;41.724;13.346;2022-08-27T03:31:53;96302.41;;;24.39;62.69
51123;BME280;37162;41.724;13.346;2022-08-27T03:34:18;96288.16;;;24.29;62.62
51123;BME280;37162;41.724;13.346;2022-08-27T03:36:44;96305.13;;;24.39;62.43
51123;BME280;37162;41.724;13.346;2022-08-27T03:39:10;96305.44;;;24.38;62.35
51123;BME280;37162;41.724;13.346;2022-08-27T03:41:36;96304.34;;;24.39;62.41
51123;BME280;37162;41.724;13.346;2022-08-27T03:44:02;96312.78;;;24.37;62.37
51123;BME280;37162;41.724;13.346;2022-08-27T03:46:27;96310.88;;;24.38;62.33
51123;BME280;37162;41.724;13.346;2022-08-27T03:48:55;96305.44;;;24.38;62.33
51123;BME280;37162;41.724;13.346;2022-08-27T03:51:20;96300.00;;;24.38;62.55
51123;BME280;37162;41.724;13.346;2022-08-27T03:53:46;96302.41;;;24.39;62.41
51123;BME280;37162;41.724;13.346;2022-08-27T03:56:11;96291.06;;;24.37;63.00
51123;BME280;37162;41.724;13.346;2022-08-27T03:58:37;96297.28;;;24.38;63.16
51123;BME280;37162;41.724;13.346;2022-08-27T04:01:04;96293.47;;;24.39;62.89
51123;BME280;37162;41.724;13.346;2022-08-27T04:03:30;96292.66;;;24.38;63.15
51123;BME280;37162;41.724;13.346;2022-08-27T04:05:56;96297.28;;;24.38;62.58
51123;BME280;37162;41.724;13.346;2022-08-27T04:08:23;96301.09;;;24.37;62.36
51123;BME280;37162;41.724;13.346;2022-08-27T04:10:49;96283.78;;;24.28;62.29
51123;BME280;37162;41.724;13.346;2022-08-27T04:13:16;96292.13;;;24.36;62.58
51123;BME280;37162;41.724;13.346;2022-08-27T04:15:43;96303.81;;;24.37;62.52
51123;BME280;37162;41.724;13.346;2022-08-27T04:18:10;96308.44;;;24.36;62.62
51123;BME280;37162;41.724;13.346;2022-08-27T04:20:37;96306.50;;;24.37;62.13
51123;BME280;37162;41.724;13.346;2022-08-27T04:23:03;96290.56;;;24.30;62.38
51123;BME280;37162;41.724;13.346;2022-08-27T04:25:28;96311.94;;;24.37;62.49
51123;BME280;37162;41.724;13.346;2022-08-27T04:27:54;96303.00;;;24.36;62.69
51123;BME280;37162;41.724;13.346;2022-08-27T04:30:19;96295.50;;;24.28;63.02
51123;BME280;37162;41.724;13.346;2022-08-27T04:32:45;96306.50;;;24.37;63.33
51123;BME280;37162;41.724;13.346;2022-08-27T04:35:10;96305.19;;;24.34;63.37
51123;BME280;37162;41.724;13.346;2022-08-27T04:37:36;96302.22;;;24.31;63.20
51123;BME280;37162;41.724;13.346;2022-08-27T04:40:03;96296.56;;;24.27;62.75
51123;BME280;37162;41.724;13.346;2022-08-27T04:42:29;96304.44;;;24.29;62.56
51123;BME280;37162;41.724;13.346;2022-08-27T04:44:55;96319.56;;;24.35;62.45
51123;BME280;37162;41.724;13.346;2022-08-27T04:47:20;96303.41;;;24.25;62.45
51123;BME280;37162;41.724;13.346;2022-08-27T04:49:46;96319.56;;;24.35;62.38
51123;BME280;37162;41.724;13.346;2022-08-27T04:52:11;96316.03;;;24.34;62.44
51123;BME280;37162;41.724;13.346;2022-08-27T04:54:37;96317.16;;;24.33;62.45
51123;BME280;37162;41.724;13.346;2022-08-27T04:57:05;96311.19;;;24.31;62.44
51123;BME280;37162;41.724;13.346;2022-08-27T04:59:31;96315.22;;;24.34;62.71
51123;BME280;37162;41.724;13.346;2022-08-27T05:01:57;96306.91;;;24.25;62.71
51123;BME280;37162;41.724;13.346;2022-08-27T05:04:23;96325.28;;;24.33;62.63
51123;BME280;37162;41.724;13.346;2022-08-27T05:06:48;96319.84;;;24.33;62.82
51123;BME280;37162;41.724;13.346;2022-08-27T05:09:15;96320.13;;;24.32;62.50
51123;BME280;37162;41.724;13.346;2022-08-27T05:11:41;96315.50;;;24.32;62.49
51123;BME280;37162;41.724;13.346;2022-08-27T05:14:09;96316.34;;;24.33;62.46
51123;BME280;37162;41.724;13.346;2022-08-27T05:16:35;96323.38;;;24.34;62.68
51123;BME280;37162;41.724;13.346;2022-08-27T05:19:03;96314.44;;;24.33;62.37
51123;BME280;37162;41.724;13.346;2022-08-27T05:21:33;96304.72;;;24.27;62.44
51123;BME280;37162;41.724;13.346;2022-08-27T05:24:00;96310.06;;;24.32;62.19
51123;BME280;37162;41.724;13.346;2022-08-27T05:26:27;96302.53;;;24.29;62.31
51123;BME280;37162;41.724;13.346;2022-08-27T05:28:53;96298.47;;;24.27;62.27
51123;BME280;37162;41.724;13.346;2022-08-27T05:31:21;96303.00;;;24.36;62.36
51123;BME280;37162;41.724;13.346;2022-08-27T05:33:47;96308.44;;;24.36;62.20
51123;BME280;37162;41.724;13.346;2022-08-27T05:36:21;96311.94;;;24.37;62.22
51123;BME280;37162;41.724;13.346;2022-08-27T05:38:48;96306.28;;;24.33;62.26
51123;BME280;37162;41.724;13.346;2022-08-27T05:41:17;96310.88;;;24.38;62.04
51123;BME280;37162;41.724;13.346;2022-08-27T05:43:44;96303.00;;;24.36;62.20
51123;BME280;37162;41.724;13.346;2022-08-27T05:46:13;96311.38;;;24.40;62.09
51123;BME280;37162;41.724;13.346;2022-08-27T05:48:40;96314.09;;;24.40;61.91
51123;BME280;37162;41.724;13.346;2022-08-27T05:53:39;96320.06;;;24.42;62.04
51123;BME280;37162;41.724;13.346;2022-08-27T05:56:11;96315.19;;;24.39;61.97
51123;BME280;37162;41.724;13.346;2022-08-27T05:58:37;96323.56;;;24.42;62.01
51123;BME280;37162;41.724;13.346;2022-08-27T06:01:21;96315.44;;;24.42;62.26
51123;BME280;37162;41.724;13.346;2022-08-27T06:03:47;96322.47;;;24.43;61.83
51123;BME280;37162;41.724;13.346;2022-08-27T06:06:13;96318.66;;;24.44;61.99
51123;BME280;37162;41.724;13.346;2022-08-27T06:08:38;96307.59;;;24.36;62.27
51123;BME280;37162;41.724;13.346;2022-08-27T06:11:05;96321.38;;;24.44;62.31
51123;BME280;37162;41.724;13.346;2022-08-27T06:13:32;96328.13;;;24.47;62.57
51123;BME280;37162;41.724;13.346;2022-08-27T06:16:09;96330.53;;;24.48;62.77
51123;BME280;37162;41.724;13.346;2022-08-27T06:18:38;96330.53;;;24.48;62.62
51123;BME280;37162;41.724;13.346;2022-08-27T06:21:04;96329.75;;;24.48;63.09
51123;BME280;37162;41.724;13.346;2022-08-27T06:23:30;96332.47;;;24.48;62.28
51123;BME280;37162;41.724;13.346;2022-08-27T06:25:56;96329.44;;;24.50;62.39
51123;BME280;37162;41.724;13.346;2022-08-27T06:28:24;96328.34;;;24.51;62.65
51123;BME280;37162;41.724;13.346;2022-08-27T06:30:50;96325.63;;;24.51;62.55
51123;BME280;37162;41.724;13.346;2022-08-27T06:33:16;96317.25;;;24.47;62.57
51123;BME280;37162;41.724;13.346;2022-08-27T06:35:42;96333.19;;;24.54;62.60
51123;BME280;37162;41.724;13.346;2022-08-27T06:38:07;96328.88;;;24.53;62.41
51123;BME280;37162;41.724;13.346;2022-08-27T06:40:33;96333.69;;;24.56;62.52
51123;BME280;37162;41.724;13.346;2022-08-27T06:42:59;96330.97;;;24.56;62.83
51123;BME280;37162;41.724;13.346;2022-08-27T06:45:25;96318.28;;;24.51;63.18
51123;BME280;37162;41.724;13.346;2022-08-27T06:47:50;96327.47;;;24.55;63.14
51123;BME280;37162;41.724;13.346;2022-08-27T06:50:16;96333.94;;;24.59;63.42
51123;BME280;37162;41.724;13.346;2022-08-27T06:52:42;96334.72;;;24.60;62.98
51123;BME280;37162;41.724;13.346;2022-08-27T06:55:07;96340.69;;;24.62;63.26
51123;BME280;37162;41.724;13.346;2022-08-27T06:57:35;96328.78;;;24.58;62.95
51123;BME280;37162;41.724;13.346;2022-08-27T07:00:01;96333.94;;;24.59;63.61
51123;BME280;37162;41.724;13.346;2022-08-27T07:02:26;96342.53;;;24.66;63.67
51123;BME280;37162;41.724;13.346;2022-08-27T07:04:52;96347.44;;;24.64;64.49
51123;BME280;37162;41.724;13.346;2022-08-27T07:07:18;96345.81;;;24.63;63.85
51123;BME280;37162;41.724;13.346;2022-08-27T07:09:43;96357.50;;;24.64;63.78
51123;BME280;37162;41.724;13.346;2022-08-27T07:12:09;96355.31;;;24.66;63.49
51123;BME280;37162;41.724;13.346;2022-08-27T07:14:35;96346.31;;;24.65;64.16
51123;BME280;37162;41.724;13.346;2022-08-27T07:17:01;96345.53;;;24.65;64.23
51123;BME280;37162;41.724;13.346;2022-08-27T07:19:26;96358.75;;;24.71;63.97
51123;BME280;37162;41.724;13.346;2022-08-27T07:21:53;96353.03;;;24.73;63.22
51123;BME280;37162;41.724;13.346;2022-08-27T07:24:18;96356.28;;;24.75;63.28
51123;BME280;37162;41.724;13.346;2022-08-27T07:26:44;96354.88;;;24.78;63.64
51123;BME280;37162;41.724;13.346;2022-08-27T07:29:13;96356.47;;;24.79;63.59
51123;BME280;37162;41.724;13.346;2022-08-27T07:31:39;96362.66;;;24.84;63.95
51123;BME280;37162;41.724;13.346;2022-08-27T07:34:05;96357.22;;;24.84;63.44
51123;BME280;37162;41.724;13.346;2022-08-27T07:36:33;96354.22;;;24.86;63.05
51123;BME280;37162;41.724;13.346;2022-08-27T07:38:59;96362.06;;;24.87;63.24
51123;BME280;37162;41.724;13.346;2022-08-27T07:41:25;96361.50;;;24.90;63.12
51123;BME280;37162;41.724;13.346;2022-08-27T07:43:50;96355.75;;;24.92;62.99
51123;BME280;37162;41.724;13.346;2022-08-27T07:46:34;96358.16;;;24.93;62.54
51123;BME280;37162;41.724;13.346;2022-08-27T07:49:00;96361.41;;;24.95;62.67
51123;BME280;37162;41.724;13.346;2022-08-27T07:51:27;96366.28;;;24.98;62.47
51123;BME280;37162;41.724;13.346;2022-08-27T07:53:55;96365.16;;;24.99;62.59
51123;BME280;37162;41.724;13.346;2022-08-27T07:56:21;96369.19;;;25.02;62.60
51123;BME280;37162;41.724;13.346;2022-08-27T07:58:47;96366.19;;;25.04;62.49
51123;BME280;37162;41.724;13.346;2022-08-27T08:01:12;96357.72;;;25.05;62.13
51123;BME280;37162;41.724;13.346;2022-08-27T08:03:38;96365.34;;;25.08;62.44
51123;BME280;37162;41.724;13.346;2022-08-27T08:06:08;96364.22;;;25.09;62.47
51123;BME280;37162;41.724;13.346;2022-08-27T08:08:35;96364.72;;;25.11;62.42
51123;BME280;37162;41.724;13.346;2022-08-27T08:11:01;96369.88;;;25.13;62.50
51123;BME280;37162;41.724;13.346;2022-08-27T08:13:29;96372.31;;;25.14;62.20
51123;BME280;37162;41.724;13.346;2022-08-27T08:15:55;96372.81;;;25.16;62.33
51123;BME280;37162;41.724;13.346;2022-08-27T08:18:21;96367.09;;;25.18;62.34
51123;BME280;37162;41.724;13.346;2022-08-27T08:20:48;96367.59;;;25.20;62.24
51123;BME280;37162;41.724;13.346;2022-08-27T08:23:13;96358.03;;;25.22;62.19
51123;BME280;37162;41.724;13.346;2022-08-27T08:25:40;96361.78;;;25.27;61.97
51123;BME280;37162;41.724;13.346;2022-08-27T08:28:06;96362.28;;;25.29;61.95
51123;BME280;37162;41.724;13.346;2022-08-27T08:30:31;96366.31;;;25.31;61.51
51123;BME280;37162;41.724;13.346;2022-08-27T08:32:57;96365.72;;;25.34;61.56
51123;BME280;37162;41.724;13.346;2022-08-27T08:35:22;96366.25;;;25.36;61.83
51123;BME280;37162;41.724;13.346;2022-08-27T08:37:48;96358.69;;;25.33;61.69
51123;BME280;37162;41.724;13.346;2022-08-27T08:40:31;96360.28;;;25.34;61.82
51123;BME280;37162;41.724;13.346;2022-08-27T08:42:57;96367.25;;;25.40;61.46
51123;BME280;37162;41.724;13.346;2022-08-27T08:45:28;96361.00;;;25.40;61.40
51123;BME280;37162;41.724;13.346;2022-08-27T08:47:58;96367.13;;;25.51;61.27
51123;BME280;37162;41.724;13.346;2022-08-27T08:53:20;96359.94;;;25.55;61.12
51123;BME280;37162;41.724;13.346;2022-08-27T08:55:55;96359.66;;;25.56;61.09
51123;BME280;37162;41.724;13.346;2022-08-27T08:58:47;96360.16;;;25.58;60.93
51123;BME280;37162;41.724;13.346;2022-08-27T09:01:17;96361.78;;;25.59;61.14
51123;BME280;37162;41.724;13.346;2022-08-27T09:03:52;96365.72;;;25.67;60.88
51123;BME280;37162;41.724;13.346;2022-08-27T09:07:04;96362.41;;;25.70;61.08
51123;BME280;37162;41.724;13.346;2022-08-27T09:09:55;96362.91;;;25.72;60.79
51123;BME280;37162;41.724;13.346;2022-08-27T09:12:08;96366.16;;;25.74;60.70
51123;BME280;37162;41.724;13.346;2022-08-27T09:14:55;96362.06;;;25.77;60.58
51123;BME280;37162;41.724;13.346;2022-08-27T09:17:22;96365.56;;;25.77;60.33
51123;BME280;37162;41.724;13.346;2022-08-27T09:19:48;96366.09;;;25.79;60.38
51123;BME280;37162;41.724;13.346;2022-08-27T09:25:25;96366.00;;;25.84;60.16
51123;BME280;37162;41.724;13.346;2022-08-27T09:27:55;96369.53;;;25.85;60.35
51123;BME280;37162;41.724;13.346;2022-08-27T09:30:25;96359.44;;;25.85;60.37
51123;BME280;37162;41.724;13.346;2022-08-27T09:33:00;96356.41;;;25.87;60.21
51123;BME280;37162;41.724;13.346;2022-08-27T09:35:27;96361.88;;;25.87;60.56
51123;BME280;37162;41.724;13.346;2022-08-27T09:37:57;96365.38;;;25.87;60.31
51123;BME280;37162;41.724;13.346;2022-08-27T09:40:37;96362.97;;;25.86;60.38
51123;BME280;37162;41.724;13.346;2022-08-27T09:43:07;96370.56;;;25.89;60.19
51123;BME280;37162;41.724;13.346;2022-08-27T09:45:50;96358.56;;;25.90;60.37
51123;BME280;37162;41.724;13.346;2022-08-27T09:48:36;96353.59;;;25.92;60.26
51123;BME280;37162;41.724;13.346;2022-08-27T09:51:09;96350.59;;;25.93;60.19
51123;BME280;37162;41.724;13.346;2022-08-27T09:53:46;96353.00;;;25.95;60.12
51123;BME280;37162;41.724;13.346;2022-08-27T09:56:26;96349.97;;;25.96;59.99
51123;BME280;37162;41.724;13.346;2022-08-27T09:59:03;96329.41;;;25.90;59.99
51123;BME280;37162;41.724;13.346;2022-08-27T10:01:32;96352.09;;;25.99;60.13
51123;BME280;37162;41.724;13.346;2022-08-27T10:04:13;96352.59;;;26.02;59.89
51123;BME280;37162;41.724;13.346;2022-08-27T10:06:47;96355.84;;;26.04;60.03
51123;BME280;37162;41.724;13.346;2022-08-27T10:09:27;96339.81;;;26.02;59.90
51123;BME280;37162;41.724;13.346;2022-08-27T10:12:04;96355.25;;;26.07;59.92
51123;BME280;37162;41.724;13.346;2022-08-27T10:14:35;96341.31;;;26.08;59.99
51123;BME280;37162;41.724;13.346;2022-08-27T10:17:20;96331.66;;;26.02;59.80
51123;BME280;37162;41.724;13.346;2022-08-27T10:25:30;96346.06;;;26.16;59.59
51123;BME280;37162;41.724;13.346;2022-08-27T10:41:32;96346.56;;;26.18;59.63
51123;BME280;37162;41.724;13.346;2022-08-27T10:47:28;96337.50;;;26.23;59.18
51123;BME280;37162;41.724;13.346;2022-08-27T10:50:02;96334.44;;;26.24;59.33
51123;BME280;37162;41.724;13.346;2022-08-27T10:52:40;96339.41;;;26.22;59.23
51123;BME280;37162;41.724;13.346;2022-08-27T10:55:29;96335.69;;;26.18;59.19
51123;BME280;37162;41.724;13.346;2022-08-27T11:03:10;96322.97;;;26.00;59.58
51123;BME280;37162;41.724;13.346;2022-08-27T11:05:48;96332.75;;;26.01;60.03
51123;BME280;37162;41.724;13.346;2022-08-27T11:10:50;96337.81;;;26.08;60.13
51123;BME280;37162;41.724;13.346;2022-08-27T11:13:34;96342.72;;;26.06;59.95
51123;BME280;37162;41.724;13.346;2022-08-27T11:16:15;96330.13;;;25.96;60.19
51123;BME280;37162;41.724;13.346;2022-08-27T11:18:46;96339.91;;;25.97;60.19
51123;BME280;37162;41.724;13.346;2022-08-27T11:21:18;96338.59;;;25.94;60.38
51123;BME280;37162;41.724;13.346;2022-08-27T11:24:14;96326.19;;;25.88;60.44
51123;BME280;37162;41.724;13.346;2022-08-27T11:26:45;96321.34;;;25.85;60.40
51123;BME280;37162;41.724;13.346;2022-08-27T11:29:48;96311.06;;;25.82;60.60
51123;BME280;37162;41.724;13.346;2022-08-27T11:32:42;96311.25;;;25.86;60.60
51123;BME280;37162;41.724;13.346;2022-08-27T11:35:17;96324.88;;;25.86;60.62
51123;BME280;37162;41.724;13.346;2022-08-27T11:38:15;96322.66;;;25.88;60.74
51123;BME280;37162;41.724;13.346;2022-08-27T11:41:12;96327.28;;;25.87;60.60
51123;BME280;37162;41.724;13.346;2022-08-27T11:43:41;96328.72;;;25.85;60.62
51123;BME280;37162;41.724;13.346;2022-08-27T11:46:09;96325.28;;;25.79;60.74
51123;BME280;37162;41.724;13.346;2022-08-27T11:48:42;96315.78;;;25.77;60.79
51123;BME280;37162;41.724;13.346;2022-08-27T11:51:31;96307.63;;;25.77;60.87
51123;BME280;37162;41.724;13.346;2022-08-27T11:54:01;96288.44;;;25.68;60.91
51123;BME280;37162;41.724;13.346;2022-08-27T11:58:52;96288.44;;;25.68;60.90
51123;BME280;37162;41.724;13.346;2022-08-27T12:01:29;96280.97;;;25.60;61.01
51123;BME280;37162;41.724;13.346;2022-08-27T12:04:03;96285.81;;;25.63;61.07
51123;BME280;37162;41.724;13.346;2022-08-27T12:06:44;96262.91;;;25.50;61.08
51123;BME280;37162;41.724;13.346;2022-08-27T12:09:20;96276.94;;;25.57;61.40
51123;BME280;37162;41.724;13.346;2022-08-27T12:14:42;96277.03;;;25.52;61.42
51123;BME280;37162;41.724;13.346;2022-08-27T12:17:25;96271.06;;;25.50;61.79
51123;BME280;37162;41.724;13.346;2022-08-27T12:22:54;96259.47;;;25.44;61.85
51123;BME280;37162;41.724;13.346;2022-08-27T12:25:39;96253.66;;;25.37;61.89
51123;BME280;37162;41.724;13.346;2022-08-27T12:28:07;96278.63;;;25.39;61.89
51123;BME280;37162;41.724;13.346;2022-08-27T12:36:02;96322.00;;;25.31;61.89
51123;BME280;37162;41.724;13.346;2022-08-27T12:38:37;96327.16;;;25.32;61.95
51123;BME280;37162;41.724;13.346;2022-08-27T12:41:06;96341.03;;;25.31;62.23
51123;BME280;37162;41.724;13.346;2022-08-27T12:43:37;96334.78;;;25.30;62.23
51123;BME280;37162;41.724;13.346;2022-08-27T12:46:09;96329.66;;;25.29;64.18
51123;BME280;37162;41.724;13.346;2022-08-27T12:48:49;96328.13;;;25.22;63.82
51123;BME280;37162;41.724;13.346;2022-08-27T12:51:29;96331.44;;;25.19;63.72
51123;BME280;37162;41.724;13.346;2022-08-27T12:57:07;96359.50;;;25.15;63.36
51123;BME280;37162;41.724;13.346;2022-08-27T13:04:38;96374.50;;;25.12;63.16
51123;BME280;37162;41.724;13.346;2022-08-27T13:07:05;96345.19;;;24.90;63.26
51123;BME280;37162;41.724;13.346;2022-08-27T13:09:37;96385.38;;;25.12;63.60
51123;BME280;37162;41.724;13.346;2022-08-27T13:12:18;96384.06;;;25.10;63.25
51123;BME280;37162;41.724;13.346;2022-08-27T13:14:44;96393.31;;;25.09;63.50
51123;BME280;37162;41.724;13.346;2022-08-27T13:17:14;96397.69;;;25.05;63.68
51123;BME280;37162;41.724;13.346;2022-08-27T13:19:52;96397.41;;;25.06;63.64
51123;BME280;37162;41.724;13.346;2022-08-27T13:22:24;96392.25;;;25.05;63.66
51123;BME280;37162;41.724;13.346;2022-08-27T13:24:53;96392.25;;;25.05;63.87
51123;BME280;37162;41.724;13.346;2022-08-27T13:27:29;96387.94;;;25.04;63.94
51123;BME280;37162;41.724;13.346;2022-08-27T13:30:00;96387.13;;;25.03;64.20
51123;BME280;37162;41.724;13.346;2022-08-27T13:32:28;96394.44;;;25.03;63.77
51123;BME280;37162;41.724;13.346;2022-08-27T13:34:54;96371.75;;;24.93;63.87
51123;BME280;37162;41.724;13.346;2022-08-27T13:37:24;96381.97;;;25.02;63.97
51123;BME280;37162;41.724;13.346;2022-08-27T13:39:54;96375.41;;;25.03;64.02
51123;BME280;37162;41.724;13.346;2022-08-27T13:42:21;96381.97;;;25.02;64.16
51123;BME280;37162;41.724;13.346;2022-08-27T13:44:47;96374.63;;;25.02;64.22
51123;BME280;37162;41.724;13.346;2022-08-27T13:47:17;96369.97;;;25.03;64.03
51123;BME280;37162;41.724;13.346;2022-08-27T13:49:44;96372.69;;;25.03;64.03
51123;BME280;37162;41.724;13.346;2022-08-27T13:52:31;96377.88;;;25.04;63.98
51123;BME280;37162;41.724;13.346;2022-08-27T13:55:07;96367.28;;;25.03;64.20
51123;BME280;37162;41.724;13.346;2022-08-27T13:57:45;96373.22;;;25.05;63.88
51123;BME280;37162;41.724;13.346;2022-08-27T14:00:30;96366.19;;;25.04;63.96
51123;BME280;37162;41.724;13.346;2022-08-27T14:02:57;96369.72;;;25.04;63.90
51123;BME280;37162;41.724;13.346;2022-08-27T14:05:29;96376.75;;;25.05;63.57